Time;durP1;ratioP1;P1;durP2;ratioP2;P2;SDS_P1;SDS_P2;PMS_P1;PMS_P2;Temp;Humidity;BMP_temperature;BMP_pressure;BME280_temperature;BME280_humidity;BME280_pressure;Samples;Min_cycle;Max_cycle;Signal;HPM_P1;HPM_P2
2022/11/13 00:02:49;;;;;;;68.00;57.20;;;;;;;9.08;72.99;102043.65;108236;1280;22710;-79
2022/11/13 00:05:37;;;;;;;62.20;55.50;;;;;;;9.10;73.03;102042.59;108126;1280;21958;-79
2022/11/13 00:08:26;;;;;;;60.10;53.30;;;;;;;9.12;73.15;102044.15;108132;1280;21937;-79
2022/11/13 00:11:17;;;;;;;61.80;52.60;;;;;;;9.14;73.18;102041.18;108182;1280;23577;-79
2022/11/13 00:14:05;;;;;;;55.00;49.00;;;;;;;9.16;73.35;102039.25;108156;1280;23698;-80
2022/11/13 00:16:53;;;;;;;53.90;48.20;;;;;;;9.20;73.33;102043.41;108041;1275;21940;-80
2022/11/13 00:19:40;;;;;;;55.40;48.30;;;;;;;9.19;73.16;102048.45;108406;1280;23620;-79
2022/11/13 00:22:27;;;;;;;54.30;48.40;;;;;;;9.15;73.09;102052.98;108174;1280;21953;-79
2022/11/13 00:25:15;;;;;;;52.00;46.20;;;;;;;9.15;73.31;102046.39;108183;1280;21961;-80
2022/11/13 00:28:03;;;;;;;50.80;44.90;;;;;;;9.19;73.37;102046.36;107809;1286;24533;-79
2022/11/13 00:30:59;;;;;;;49.40;44.20;;;;;;;9.19;73.34;102051.40;107990;1285;22726;-79
2022/11/13 00:33:47;;;;;;;52.20;46.80;;;;;;;9.14;73.28;102052.83;107751;1284;21962;-79
2022/11/13 00:36:55;;;;;;;52.90;47.50;;;;;;;9.07;73.30;102050.41;108386;1279;23128;-79
2022/11/13 00:39:44;;;;;;;53.30;46.80;;;;;;;9.05;73.40;102048.17;108274;1280;21937;-79
2022/11/13 00:42:32;;;;;;;52.00;46.60;;;;;;;9.06;73.58;102048.00;108192;1280;21928;-79
2022/11/13 00:45:19;;;;;;;55.80;49.90;;;;;;;9.09;73.70;102046.42;108189;1275;21952;-80
2022/11/13 00:48:07;;;;;;;59.30;53.20;;;;;;;9.09;73.59;102041.55;108566;1274;22155;-79
2022/11/13 00:50:55;;;;;;;54.70;49.10;;;;;;;9.06;73.57;102043.13;108711;1274;21940;-80
2022/11/13 00:53:43;;;;;;;54.40;48.60;;;;;;;9.07;73.71;102043.48;108559;1274;21960;-79
2022/11/13 00:56:30;;;;;;;54.10;48.40;;;;;;;9.07;73.72;102037.75;108682;1273;21925;-79
2022/11/13 00:59:19;;;;;;;54.80;49.20;;;;;;;9.05;73.73;102028.04;108533;1275;23603;-79
2022/11/13 01:02:14;;;;;;;54.40;48.70;;;;;;;9.06;73.91;102033.41;108410;1280;21974;-80
2022/11/13 01:05:02;;;;;;;53.50;48.00;;;;;;;9.04;73.79;102033.25;108271;1280;21925;-79
2022/11/13 01:07:50;;;;;;;53.70;48.10;;;;;;;8.98;73.83;102031.18;108214;1280;23565;-79
2022/11/13 01:10:47;;;;;;;51.10;45.80;;;;;;;8.93;73.93;102022.17;108151;1280;22183;-80
2022/11/13 01:13:44;;;;;;;52.10;46.50;;;;;;;8.91;74.11;102022.19;108397;1280;21961;-79
2022/11/13 01:16:32;;;;;;;47.70;42.80;;;;;;;8.92;74.22;102020.63;108622;1280;22072;-80
2022/11/13 01:19:25;;;;;;;;;;;;;;;8.93;74.18;102011.59;108574;1274;21941;-81
2022/11/13 01:22:13;;;;;;;50.80;44.70;;;;;;;8.82;74.46;102009.55;108640;1280;23794;-80
2022/11/13 01:25:01;;;;;;;50.10;44.70;;;;;;;8.81;74.52;102008.87;108408;1281;21938;-81
2022/11/13 01:27:49;;;;;;;49.60;44.60;;;;;;;8.83;74.46;102001.91;108514;1280;21963;-80
2022/11/13 01:30:38;;;;;;;51.00;45.90;;;;;;;8.84;74.43;102002.59;108266;1279;21973;-80
2022/11/13 01:33:26;;;;;;;54.10;48.30;;;;;;;8.84;74.39;101999.64;108518;1274;23067;-80
2022/11/13 01:36:27;;;;;;;54.90;49.40;;;;;;;8.86;74.61;101998.08;108474;1280;21982;-80
2022/11/13 01:39:15;;;;;;;56.80;51.20;;;;;;;8.85;74.57;101993.57;108427;1278;21951;-78
2022/11/13 01:42:03;;;;;;;57.20;51.40;;;;;;;8.86;74.60;101990.09;108532;1274;22336;-78
2022/11/13 01:45:01;;;;;;;56.90;50.80;;;;;;;8.88;74.67;101989.55;108649;1274;21996;-78
2022/11/13 01:47:50;;;;;;;52.90;47.10;;;;;;;8.87;74.57;101989.56;108696;1274;21904;-78
2022/11/13 01:50:38;;;;;;;52.10;46.90;;;;;;;8.85;74.64;101989.93;108444;1273;21930;-79
2022/11/13 01:53:27;;;;;;;50.60;45.20;;;;;;;8.87;74.85;101983.32;108489;1272;22322;-80
2022/11/13 01:56:16;;;;;;;50.30;45.30;;;;;;;8.90;74.90;101982.27;108538;1274;23074;-79
2022/11/13 01:59:10;;;;;;;49.00;43.90;;;;;;;8.93;74.91;101983.30;108714;1275;22801;-79
2022/11/13 02:01:58;;;;;;;45.90;41.00;;;;;;;8.91;74.69;101981.21;108691;1274;23061;-79
2022/11/13 02:04:46;;;;;;;46.00;41.20;;;;;;;8.90;74.80;101982.79;108496;1274;21976;-79
2022/11/13 02:07:37;;;;;;;41.90;37.60;;;;;;;8.88;74.57;101983.13;108584;1274;23599;-79
2022/11/13 02:10:26;;;;;;;43.10;38.60;;;;;;;8.83;74.69;101974.30;108506;1274;21927;-78
2022/11/13 02:13:15;;;;;;;45.10;40.50;;;;;;;8.79;74.72;101977.79;108610;1274;21977;-79
2022/11/13 02:16:07;;;;;;;44.80;40.10;;;;;;;8.78;74.88;101978.66;108195;1280;23118;-79
2022/11/13 02:18:54;;;;;;;40.60;36.70;;;;;;;8.77;74.92;101975.21;108266;1280;23784;-79
2022/11/13 02:22:09;;;;;;;41.10;36.80;;;;;;;8.78;75.15;101977.63;108422;1280;23161;-79
2022/11/13 02:25:00;;;;;;;40.70;36.70;;;;;;;8.80;75.15;101976.92;108386;1280;23533;-79
2022/11/13 02:27:49;;;;;;;43.20;38.60;;;;;;;8.82;75.06;101977.78;108178;1277;22511;-78
2022/11/13 02:30:37;;;;;;;40.50;36.20;;;;;;;8.82;75.02;101984.91;108397;1279;21938;-78
2022/11/13 02:33:31;;;;;;;39.10;35.10;;;;;;;8.78;74.92;101979.54;108262;1274;23194;-77
2022/11/13 02:36:24;;;;;;;40.90;36.40;;;;;;;8.73;74.98;101973.48;108201;1280;21930;-78
2022/11/13 02:39:13;;;;;;;41.00;36.60;;;;;;;8.74;75.09;101973.13;108084;1280;22878;-79
2022/11/13 02:42:01;;;;;;;41.50;35.50;;;;;;;8.77;75.25;101970.34;108161;1280;22663;-78
2022/11/13 02:44:49;;;;;;;43.80;39.20;;;;;;;8.82;75.23;101968.23;108162;1280;21988;-79
2022/11/13 02:47:36;;;;;;;42.60;38.10;;;;;;;8.81;75.02;101968.07;108145;1280;23671;-79
2022/11/13 02:50:24;;;;;;;44.40;40.00;;;;;;;8.75;74.88;101970.34;108113;1280;21957;-79
2022/11/13 02:53:12;;;;;;;44.80;40.20;;;;;;;8.69;74.86;101970.20;108077;1280;23742;-79
2022/11/13 02:56:00;;;;;;;44.80;40.00;;;;;;;8.67;75.03;101968.48;108526;1274;22770;-79
2022/11/13 02:58:48;;;;;;;46.00;40.60;;;;;;;8.68;75.20;101970.38;108706;1274;21915;-79
2022/11/13 03:01:39;;;;;;;44.00;39.50;;;;;;;8.71;75.24;101971.92;108786;1274;23571;-80
2022/11/13 03:04:30;;;;;;;42.10;37.40;;;;;;;8.71;75.21;101972.44;108545;1274;22015;-79
2022/11/13 03:07:38;;;;;;;41.80;37.30;;;;;;;8.72;75.28;101973.30;108569;1275;21976;-78
2022/11/13 03:10:25;;;;;;;41.30;36.60;;;;;;;8.72;75.14;101974.02;108644;1274;22897;-78
2022/11/13 03:13:13;;;;;;;39.50;35.00;;;;;;;8.74;75.22;101969.48;108654;1274;21932;-78
2022/11/13 03:16:11;;;;;;;43.00;38.40;;;;;;;8.76;75.22;101970.35;108760;1275;22579;-79
2022/11/13 03:18:59;;;;;;;41.80;37.40;;;;;;;8.74;75.23;101968.95;108528;1275;23608;-79
2022/11/13 03:21:47;;;;;;;39.70;35.50;;;;;;;8.76;75.14;101968.77;108548;1275;22142;-79
2022/11/13 03:24:35;;;;;;;40.30;36.00;;;;;;;8.75;74.99;101971.91;108540;1274;21928;-79
2022/11/13 03:27:22;;;;;;;40.60;36.20;;;;;;;8.71;74.91;101971.75;108545;1275;21941;-80
2022/11/13 03:30:11;;;;;;;41.60;37.30;;;;;;;8.70;75.04;101972.80;108484;1274;21957;-80
2022/11/13 03:32:59;;;;;;;40.00;35.40;;;;;;;8.69;74.96;101972.29;108597;1274;21931;-79
2022/11/13 03:35:48;;;;;;;38.70;34.50;;;;;;;8.66;74.89;101968.65;108590;1274;21913;-80
2022/11/13 03:38:38;;;;;;;40.90;35.70;;;;;;;8.60;74.81;101970.75;108752;1274;24036;-79
2022/11/13 03:41:28;;;;;;;37.70;33.60;;;;;;;8.54;74.83;101967.48;108780;1274;24401;-80
2022/11/13 03:44:16;;;;;;;38.10;34.20;;;;;;;8.51;75.17;101967.85;108738;1274;21932;-80
2022/11/13 03:47:07;;;;;;;38.00;34.00;;;;;;;8.55;75.27;101964.87;108760;1274;21963;-80
2022/11/13 03:49:54;;;;;;;41.90;37.40;;;;;;;8.57;75.17;101966.42;108833;1274;21942;-79
2022/11/13 03:52:42;;;;;;;40.20;35.80;;;;;;;8.57;75.29;101963.64;108454;1275;22147;-79
2022/11/13 03:55:30;;;;;;;36.70;32.80;;;;;;;8.59;75.29;101963.65;108597;1274;21941;-79
2022/11/13 03:58:18;;;;;;;35.10;31.40;;;;;;;8.56;75.02;101962.96;108556;1275;23133;-79
2022/11/13 04:01:08;;;;;;;37.70;32.60;;;;;;;8.53;75.12;101959.67;108768;1268;21933;-79
2022/11/13 04:03:56;;;;;;;35.30;31.60;;;;;;;8.46;75.04;101952.92;108553;1269;22352;-79
2022/11/13 04:06:44;;;;;;;35.70;31.90;;;;;;;8.48;75.24;101952.05;108525;1274;21926;-79
2022/11/13 04:09:34;;;;;;;35.60;31.80;;;;;;;8.45;75.15;101951.89;108680;1275;22998;-79
2022/11/13 04:12:21;;;;;;;37.20;33.20;;;;;;;8.42;75.09;101955.36;108702;1274;21957;-79
2022/11/13 04:15:09;;;;;;;37.60;33.50;;;;;;;8.39;75.25;101952.06;108920;1274;21941;-79
2022/11/13 04:17:57;;;;;;;38.80;34.10;;;;;;;8.37;75.29;101949.81;108479;1275;21944;-79
2022/11/13 04:20:45;;;;;;;37.00;33.10;;;;;;;8.36;75.32;101948.42;108557;1274;21949;-80
2022/11/13 04:23:34;;;;;;;33.60;30.10;;;;;;;8.34;75.34;101948.77;108591;1274;23650;-79
2022/11/13 04:26:23;;;;;;;31.90;28.70;;;;;;;8.32;75.42;101946.52;108717;1274;21939;-80
2022/11/13 04:29:10;;;;;;;31.20;28.00;;;;;;;8.28;75.34;101947.40;108814;1274;22411;-80
2022/11/13 04:31:58;;;;;;;30.10;27.00;;;;;;;8.24;75.42;101944.64;108160;1280;21981;-79
2022/11/13 04:34:47;;;;;;;29.10;26.20;;;;;;;8.22;75.46;101942.75;108154;1279;21935;-79
2022/11/13 04:37:36;;;;;;;25.40;22.90;;;;;;;8.20;75.38;101943.80;108235;1280;22772;-80
2022/11/13 04:40:24;;;;;;;24.10;21.40;;;;;;;8.16;75.26;101946.05;108254;1280;21945;-79
2022/11/13 04:43:12;;;;;;;20.90;18.70;;;;;;;8.16;75.39;101945.88;108264;1280;21951;-80
2022/11/13 04:45:59;;;;;;;20.60;17.90;;;;;;;8.14;75.27;101942.42;108260;1280;21964;-79
2022/11/13 04:48:49;;;;;;;20.80;18.70;;;;;;;8.13;75.30;101938.95;108426;1280;23582;-79
2022/11/13 04:51:36;;;;;;;17.00;14.60;;;;;;;8.14;75.18;101945.36;108397;1280;22316;-79
2022/11/13 04:54:26;;;;;;;17.80;15.90;;;;;;;8.12;74.80;101946.23;108211;1279;22215;-79
2022/11/13 04:57:15;;;;;;;18.20;16.20;;;;;;;8.07;74.77;101943.99;108573;1275;23581;-77
2022/11/13 05:00:05;;;;;;;15.60;14.00;;;;;;;8.08;74.86;101937.39;108506;1274;21940;-79
2022/11/13 05:02:57;;;;;;;16.60;14.60;;;;;;;8.12;74.83;101937.21;108524;1275;21933;-80
2022/11/13 05:05:45;;;;;;;;;;;;;;;8.13;74.50;101939.46;108800;1277;21911;-79
2022/11/13 05:08:34;;;;;;;16.60;14.60;;;;;;;8.02;74.40;101942.78;108229;1280;21940;-79
2022/11/13 05:11:22;;;;;;;18.40;16.50;;;;;;;7.98;74.29;101945.04;108272;1280;21933;-80
2022/11/13 05:14:12;;;;;;;17.20;15.10;;;;;;;7.96;74.07;101949.03;108202;1281;23053;-80
2022/11/13 05:17:00;;;;;;;18.20;15.00;;;;;;;7.94;74.09;101949.38;108193;1280;24199;-80
2022/11/13 05:19:47;;;;;;;16.00;14.20;;;;;;;7.96;74.17;101955.80;108400;1281;23075;-80
2022/11/13 05:22:35;;;;;;;16.30;14.60;;;;;;;8.00;74.06;101958.05;108238;1280;21961;-80
2022/11/13 05:25:23;;;;;;;17.00;15.20;;;;;;;8.00;73.93;101958.73;108530;1280;21947;-80
2022/11/13 05:28:14;;;;;;;18.10;16.20;;;;;;;7.96;73.61;101962.20;108568;1277;23088;-80
2022/11/13 05:31:08;;;;;;;24.70;22.10;;;;;;;7.92;73.49;101956.67;108652;1275;21926;-80
2022/11/13 05:33:56;;;;;;;28.50;25.50;;;;;;;7.93;73.54;101956.51;108737;1267;21933;-77
2022/11/13 05:36:52;;;;;;;32.70;29.20;;;;;;;7.95;73.64;101958.91;108519;1274;21937;-77
2022/11/13 05:39:39;;;;;;;33.10;29.50;;;;;;;7.96;73.45;101964.29;108405;1278;21995;-79
2022/11/13 05:42:29;;;;;;;36.10;31.40;;;;;;;7.98;73.43;101958.05;108282;1278;22071;-79
2022/11/13 05:45:18;;;;;;;35.60;31.60;;;;;;;8.01;73.60;101959.77;108477;1276;21933;-79
2022/11/13 05:48:06;;;;;;;37.20;33.10;;;;;;;8.04;73.32;101962.89;108419;1280;23670;-79
2022/11/13 05:51:11;;;;;;;40.60;36.00;;;;;;;8.02;73.03;101964.46;108339;1264;23141;-79
2022/11/13 05:53:59;;;;;;;41.10;35.90;;;;;;;8.03;73.23;101964.11;108353;1278;22079;-79
2022/11/13 05:56:47;;;;;;;40.00;35.80;;;;;;;8.04;73.05;101956.83;108404;1278;21931;-80
2022/11/13 05:59:34;;;;;;;41.40;37.00;;;;;;;7.99;72.82;101954.73;108561;1275;21978;-79
2022/11/13 06:02:26;;;;;;;41.90;37.30;;;;;;;7.95;72.87;101950.07;108605;1275;21923;-79
2022/11/13 06:05:13;;;;;;;41.90;37.40;;;;;;;7.94;72.90;101949.05;108524;1277;23136;-79
2022/11/13 06:08:04;;;;;;;42.80;38.30;;;;;;;7.92;72.76;101949.39;108586;1275;21936;-79
2022/11/13 06:10:57;;;;;;;40.60;35.00;;;;;;;7.87;72.57;101953.20;108777;1277;21952;-80
2022/11/13 06:13:46;;;;;;;39.40;35.10;;;;;;;7.85;72.67;101954.59;108771;1273;22262;-80
2022/11/13 06:16:40;;;;;;;36.70;32.80;;;;;;;7.87;72.90;101947.84;108548;1274;22190;-80
2022/11/13 06:19:28;;;;;;;43.00;35.00;;;;;;;7.88;72.78;101944.37;108797;1275;21944;-78
2022/11/13 06:22:15;;;;;;;41.50;34.50;;;;;;;7.85;72.49;101944.71;108579;1277;21951;-79
2022/11/13 06:25:03;;;;;;;40.30;35.60;;;;;;;7.84;72.59;101943.67;108671;1275;22125;-78
2022/11/13 06:27:53;;;;;;;36.80;31.70;;;;;;;7.85;72.53;101946.96;108291;1277;21901;-78
2022/11/13 06:30:41;;;;;;;39.40;34.90;;;;;;;7.86;72.53;101948.18;108448;1272;22441;-77
2022/11/13 06:33:30;;;;;;;41.30;34.40;;;;;;;7.86;72.55;101946.10;108287;1278;22950;-77
2022/11/13 06:36:22;;;;;;;42.80;36.30;;;;;;;7.85;72.30;101944.20;108224;1278;21935;-77
2022/11/13 06:39:11;;;;;;;46.30;37.50;;;;;;;7.81;72.32;101946.79;108343;1277;21951;-77
2022/11/13 06:41:59;;;;;;;45.00;38.60;;;;;;;7.80;72.41;101949.22;108445;1277;22798;-78
2022/11/13 06:44:50;;;;;;;45.10;40.00;;;;;;;7.80;72.56;101956.33;108321;1278;23574;-78
2022/11/13 06:47:38;;;;;;;44.80;40.00;;;;;;;7.82;72.52;101952.52;108645;1277;22683;-79
2022/11/13 06:50:25;;;;;;;51.30;42.20;;;;;;;7.87;72.55;101951.13;108591;1272;21994;-78
2022/11/13 06:53:14;;;;;;;45.30;40.40;;;;;;;7.93;72.60;101951.30;108617;1275;23039;-78
2022/11/13 06:56:05;;;;;;;48.70;43.60;;;;;;;8.01;72.60;101944.70;108629;1277;21939;-78
2022/11/13 06:58:55;;;;;;;;;;;;;;;8.08;72.59;101946.58;108640;1274;21975;-78
2022/11/13 07:01:42;;;;;;;44.30;38.30;;;;;;;8.07;72.71;101948.84;108609;1274;23007;-79
2022/11/13 07:04:30;;;;;;;48.80;39.60;;;;;;;8.10;72.56;101951.95;108578;1277;21976;-78
2022/11/13 07:07:17;;;;;;;55.90;44.10;;;;;;;8.13;72.30;101949.35;108579;1278;21926;-79
2022/11/13 07:10:10;;;;;;;52.10;43.30;;;;;;;8.14;72.26;101947.27;108682;1274;21927;-79
2022/11/13 07:12:59;;;;;;;49.00;41.90;;;;;;;8.17;72.18;101945.86;108689;1274;21933;-79
2022/11/13 07:15:47;;;;;;;46.60;39.60;;;;;;;8.21;72.16;101949.85;108737;1275;21962;-78
2022/11/13 07:18:35;;;;;;;44.90;40.10;;;;;;;8.21;71.77;101952.63;108579;1273;21939;-78
2022/11/13 07:21:24;;;;;;;47.20;41.30;;;;;;;8.20;71.76;101950.20;108741;1274;21957;-79
2022/11/13 07:24:12;;;;;;;45.30;40.10;;;;;;;8.20;71.74;101949.86;108708;1274;21931;-78
2022/11/13 07:27:07;;;;;;;47.20;41.70;;;;;;;8.21;71.66;101950.38;108660;1275;21929;-78
2022/11/13 07:29:55;;;;;;;48.40;43.00;;;;;;;8.26;71.78;101948.11;108654;1274;21978;-79
2022/11/13 07:32:50;;;;;;;56.00;45.00;;;;;;;8.27;71.73;101949.32;108805;1275;23664;-78
2022/11/13 07:35:38;;;;;;;50.60;42.90;;;;;;;8.28;71.56;101948.97;108372;1281;21947;-78
2022/11/13 07:38:29;;;;;;;50.20;43.60;;;;;;;8.33;71.61;101943.59;108295;1281;23042;-79
2022/11/13 07:41:17;;;;;;;49.70;42.60;;;;;;;8.37;71.56;101943.21;108368;1280;21927;-78
2022/11/13 07:44:05;;;;;;;51.30;43.60;;;;;;;8.41;71.37;101941.48;108231;1280;21973;-77
2022/11/13 07:46:56;;;;;;;46.20;40.90;;;;;;;8.38;71.21;101941.66;108220;1280;23595;-78
2022/11/13 07:49:43;;;;;;;53.40;45.10;;;;;;;8.38;71.10;101946.86;108300;1283;21941;-77
2022/11/13 07:52:31;;;;;;;52.90;46.10;;;;;;;8.39;71.08;101950.84;108262;1280;21937;-77
2022/11/13 07:55:21;;;;;;;54.90;45.30;;;;;;;8.39;71.12;101950.52;108023;1285;21942;-78
2022/11/13 07:58:14;;;;;;;57.60;48.20;;;;;;;8.40;71.13;101949.29;107920;1276;24430;-79
2022/11/13 08:01:04;;;;;;;61.80;50.90;;;;;;;8.43;71.19;101949.81;108119;1281;23636;-78
2022/11/13 08:03:52;;;;;;;54.20;48.30;;;;;;;8.47;71.19;101948.95;108233;1280;23707;-78
2022/11/13 08:06:52;;;;;;;56.60;48.00;;;;;;;8.53;71.29;101949.97;108207;1280;21943;-77
2022/11/13 08:09:40;;;;;;;57.30;49.20;;;;;;;8.59;71.14;101954.45;108294;1283;22719;-77
2022/11/13 08:12:27;;;;;;;53.70;47.90;;;;;;;8.62;70.96;101958.09;108432;1278;21942;-81
2022/11/13 08:15:17;;;;;;;52.80;46.60;;;;;;;8.59;70.69;101956.01;108662;1275;22193;-76
2022/11/13 08:18:11;;;;;;;53.50;47.40;;;;;;;8.56;70.62;101958.62;108611;1269;21956;-77
2022/11/13 08:21:03;;;;;;;54.00;47.10;;;;;;;8.56;70.73;101958.63;108602;1274;21929;-82
2022/11/13 08:24:01;;;;;;;54.10;48.20;;;;;;;8.54;70.61;101963.32;108705;1275;21947;-79
2022/11/13 08:26:50;;;;;;;51.40;45.80;;;;;;;8.54;70.62;101966.96;108535;1278;21927;-78
2022/11/13 08:29:45;;;;;;;57.30;48.40;;;;;;;8.51;70.52;101965.07;108767;1275;21962;-77
2022/11/13 08:32:33;;;;;;;55.00;48.10;;;;;;;8.47;70.43;101967.16;108618;1279;23777;-77
2022/11/13 08:35:21;;;;;;;52.80;46.00;;;;;;;8.43;70.43;101965.60;108600;1278;21926;-77
2022/11/13 08:38:15;;;;;;;52.70;47.00;;;;;;;8.40;70.60;101966.47;108619;1278;23054;-77
2022/11/13 08:41:05;;;;;;;53.20;43.60;;;;;;;8.39;70.56;101965.77;108625;1277;21981;-78
2022/11/13 08:43:59;;;;;;;;;;;;;;;8.36;70.49;101965.25;108596;1275;21923;-78
2022/11/13 08:46:50;;;;;;;50.80;42.90;;;;;;;8.25;70.65;101972.39;108656;1276;22978;-78
2022/11/13 08:49:38;;;;;;;53.90;44.70;;;;;;;8.20;70.64;101967.55;108546;1271;23699;-77
2022/11/13 08:52:28;;;;;;;54.90;46.00;;;;;;;8.22;70.73;101965.81;108581;1275;23811;-78
2022/11/13 08:55:16;;;;;;;53.50;46.90;;;;;;;8.23;70.60;101966.15;108573;1278;22133;-77
2022/11/13 08:58:04;;;;;;;59.20;49.40;;;;;;;8.21;70.58;101970.31;108622;1276;23043;-77
2022/11/13 09:00:51;;;;;;;56.20;48.20;;;;;;;8.22;70.56;101974.31;108669;1275;21926;-77
2022/11/13 09:03:39;;;;;;;56.60;47.80;;;;;;;8.15;70.39;101969.47;108635;1274;23554;-77
2022/11/13 09:06:27;;;;;;;56.50;49.20;;;;;;;8.13;70.53;101972.08;108621;1279;24323;-77
2022/11/13 09:09:15;;;;;;;61.20;53.10;;;;;;;8.15;70.65;101968.95;108568;1278;21930;-79
2022/11/13 09:12:04;;;;;;;61.70;53.10;;;;;;;8.15;70.64;101964.26;108620;1279;22090;-78
2022/11/13 09:14:52;;;;;;;60.70;52.60;;;;;;;8.12;70.63;101960.80;108557;1276;23820;-77
2022/11/13 09:17:39;;;;;;;59.10;51.60;;;;;;;8.12;70.72;101962.89;108537;1277;21941;-78
2022/11/13 09:20:32;;;;;;;60.40;49.00;;;;;;;8.15;70.78;101963.22;108595;1279;21922;-77
2022/11/13 09:23:20;;;;;;;59.40;51.10;;;;;;;8.13;70.62;101960.10;108178;1283;21976;-77
2022/11/13 09:26:08;;;;;;;60.10;51.20;;;;;;;8.08;70.48;101961.67;108194;1280;22249;-80
2022/11/13 09:28:56;;;;;;;58.90;52.30;;;;;;;8.02;70.55;101959.08;108123;1279;21926;-79
2022/11/13 09:31:44;;;;;;;63.90;54.20;;;;;;;7.96;70.61;101964.46;108202;1283;21940;-77
2022/11/13 09:34:32;;;;;;;66.70;56.40;;;;;;;7.88;70.60;101964.13;108265;1280;23770;-79
2022/11/13 09:37:20;;;;;;;67.90;59.30;;;;;;;7.78;70.89;101967.60;108522;1281;21969;-78
2022/11/13 09:40:23;;;;;;;64.90;56.90;;;;;;;7.70;71.01;101969.85;108361;1283;22907;-78
2022/11/13 09:43:39;;;;;;;69.50;58.40;;;;;;;7.68;71.21;101972.63;108570;1278;22271;-81
2022/11/13 09:46:52;;;;;;;68.30;55.90;;;;;;;7.65;71.29;101969.15;108713;1275;21942;-78
2022/11/13 09:49:56;;;;;;;74.40;60.60;;;;;;;7.61;71.34;101962.40;108692;1276;21944;-78
2022/11/13 09:52:45;;;;;;;73.00;62.40;;;;;;;7.63;71.54;101956.16;108895;1276;22033;-79
2022/11/13 09:55:51;;;;;;;71.00;63.30;;;;;;;7.71;71.62;101954.44;108827;1278;21929;-77
2022/11/13 09:59:22;;;;;;;70.80;61.70;;;;;;;7.74;71.51;101952.00;108414;1285;23575;-80
2022/11/13 10:02:35;;;;;;;75.70;66.50;;;;;;;7.61;71.39;101947.33;108456;1280;22476;-79
2022/11/13 10:05:26;;;;;;;;;;;;;;;7.56;71.53;101946.80;108168;1283;21919;-81
2022/11/13 10:08:35;;;;;;;83.60;70.00;;;;;;;7.48;71.85;101949.74;108319;1280;21935;-79
2022/11/13 10:11:49;;;;;;;84.60;69.40;;;;;;;7.46;71.87;101938.84;108253;1280;22072;-79
2022/11/13 10:15:00;;;;;;;91.70;75.40;;;;;;;7.47;71.96;101933.11;108230;1280;22814;-78
2022/11/13 10:17:56;;;;;;;85.60;69.40;;;;;;;7.48;72.02;101930.17;108576;1278;22154;-79
2022/11/13 10:20:56;;;;;;;92.10;73.60;;;;;;;7.44;72.00;101930.52;108698;1276;21975;-78
2022/11/13 10:23:54;;;;;;;88.20;72.10;;;;;;;7.40;72.04;101929.83;108526;1279;23113;-78
2022/11/13 10:26:42;;;;;;;83.90;71.30;;;;;;;7.41;72.13;101927.05;108485;1279;22727;-78
2022/11/13 10:29:33;;;;;;;84.80;72.30;;;;;;;7.44;72.21;101923.94;108696;1273;23566;-78
2022/11/13 10:32:33;;;;;;;90.10;74.90;;;;;;;7.50;72.22;101921.34;108712;1273;21938;-78
2022/11/13 10:35:46;;;;;;;77.80;67.50;;;;;;;7.52;72.14;101919.27;108590;1275;21954;-79
2022/11/13 10:38:48;;;;;;;80.50;65.50;;;;;;;7.51;72.08;101918.05;108615;1278;21929;-79
2022/11/13 10:41:54;;;;;;;79.00;66.30;;;;;;;7.46;72.15;101913.71;108640;1275;22656;-79
2022/11/13 10:44:58;;;;;;;84.30;68.80;;;;;;;7.42;72.19;101914.58;108452;1279;23689;-79
2022/11/13 10:47:52;;;;;;;86.30;72.70;;;;;;;7.44;72.27;101909.23;108633;1276;22883;-79
2022/11/13 10:51:24;;;;;;;85.90;70.00;;;;;;;7.46;72.37;101906.10;108610;1275;21946;-78
2022/11/13 10:54:23;;;;;;;84.20;68.50;;;;;;;7.47;72.37;101908.52;108632;1275;23045;-79
2022/11/13 10:57:34;;;;;;;91.50;75.40;;;;;;;7.43;72.33;101906.44;108616;1276;22271;-79
2022/11/13 11:00:43;;;;;;;97.50;77.50;;;;;;;7.46;72.58;101905.05;108597;1265;23057;-79
2022/11/13 11:03:32;;;;;;;95.60;79.70;;;;;;;7.52;72.59;101906.45;108598;1267;21937;-80
2022/11/13 11:06:36;;;;;;;99.00;80.80;;;;;;;7.57;72.51;101902.46;108538;1275;23806;-82
2022/11/13 11:10:18;;;;;;;97.10;78.70;;;;;;;7.62;72.66;101896.04;108857;1276;23074;-80
2022/11/13 11:13:34;;;;;;;;;;;;;;;;;;;;;
2022/11/13 11:16:42;;;;;;;79.40;65.70;;;;;;;7.75;72.45;101893.25;108728;1274;21901;-81
2022/11/13 11:19:41;;;;;;;86.10;70.10;;;;;;;7.71;72.22;101887.54;108584;1275;21945;-78
2022/11/13 11:22:42;;;;;;;86.00;69.80;;;;;;;7.64;72.16;101880.45;108702;1275;22232;-79
2022/11/13 11:25:54;;;;;;;90.20;73.20;;;;;;;7.63;72.41;101874.55;108883;1276;21962;-79
2022/11/13 11:29:22;;;;;;;78.00;68.80;;;;;;;7.71;72.45;101873.15;108549;1277;21935;-78
2022/11/13 11:32:47;;;;;;;78.50;68.10;;;;;;;7.68;72.13;101871.26;108464;1279;21950;-78
2022/11/13 11:36:09;;;;;;;89.20;72.70;;;;;;;7.67;72.17;101875.59;108101;1284;22047;-78
2022/11/13 11:39:22;;;;;;;79.30;67.00;;;;;;;7.64;72.11;101873.00;107983;1284;21943;-79
2022/11/13 11:42:46;;;;;;;95.80;75.40;;;;;;;7.60;72.11;101871.79;108150;1283;21973;-78
2022/11/13 11:46:15;;;;;;;110.20;84.20;;;;;;;7.63;72.37;101868.84;107063;1275;1168129;-76
2022/11/13 11:49:09;;;;;;;100.40;79.60;;;;;;;7.71;72.49;101864.67;108244;1277;21959;-76
2022/11/13 11:52:12;;;;;;;97.50;80.00;;;;;;;7.79;72.53;101858.75;108348;1265;21958;-76
2022/11/13 11:55:30;;;;;;;90.10;75.30;;;;;;;7.83;72.40;101853.71;108363;1280;21944;-76
2022/11/13 11:58:44;;;;;;;88.90;74.00;;;;;;;7.89;72.45;101847.98;108225;1281;23116;-77
2022/11/13 12:01:58;;;;;;;96.10;75.50;;;;;;;7.96;72.34;101852.99;108383;1282;23593;-78
2022/11/13 12:05:23;;;;;;;80.80;68.60;;;;;;;7.99;71.93;101847.62;108596;1280;22397;-81
2022/11/13 12:08:58;;;;;;;92.50;67.90;;;;;;;7.91;71.70;101840.88;108305;1280;21958;-79
2022/11/13 12:11:53;;;;;;;74.40;65.70;;;;;;;7.87;71.43;101833.09;108708;1266;23665;-79
2022/11/13 12:15:17;;;;;;;89.40;73.40;;;;;;;7.86;71.56;101828.94;109067;1266;23866;-82
2022/11/13 12:18:36;;;;;;;91.80;74.70;;;;;;;7.90;71.64;101824.93;108904;1275;21944;-80
2022/11/13 12:22:29;;;;;;;84.60;69.50;;;;;;;7.87;71.16;101821.13;108968;1275;21933;-80
2022/11/13 12:25:33;;;;;;;164.50;145.20;;;;;;;7.87;71.48;101815.23;108934;1274;21989;-80
2022/11/13 12:29:03;;;;;;;132.30;118.20;;;;;;;7.90;71.30;101809.86;108976;1270;23063;-79
2022/11/13 12:32:21;;;;;;;81.20;71.80;;;;;;;7.91;71.20;101810.02;108545;1281;21777;-79
2022/11/13 12:35:22;;;;;;;94.60;77.10;;;;;;;7.87;71.10;101806.40;108183;1286;21949;-80
2022/11/13 12:38:50;;;;;;;88.00;74.50;;;;;;;7.92;71.29;101798.41;108106;1285;21955;-80
2022/11/13 12:42:00;;;;;;;96.20;81.90;;;;;;;7.95;71.34;101795.11;108159;1285;21992;-80
2022/11/13 12:45:24;;;;;;;86.70;71.50;;;;;;;7.97;71.09;101798.91;108093;1283;22153;-78
2022/11/13 12:48:15;;;;;;;83.70;67.80;;;;;;;8.02;71.21;101798.02;108095;1285;24063;-78
2022/11/13 12:51:19;;;;;;;81.10;64.90;;;;;;;8.06;71.08;101798.00;108766;1286;23700;-79
2022/11/13 12:54:43;;;;;;;87.80;69.40;;;;;;;8.04;70.89;101793.33;107227;1294;21994;-78
2022/11/13 12:57:56;;;;;;;86.30;69.10;;;;;;;7.99;70.64;101790.41;107224;1295;22765;-78
2022/11/13 13:01:17;;;;;;;85.20;67.80;;;;;;;7.98;70.77;101787.81;107519;1289;23071;-78
2022/11/13 13:04:16;;;;;;;79.20;66.40;;;;;;;7.98;70.70;101787.45;107944;1287;22313;-78
2022/11/13 13:07:31;;;;;;;87.30;70.80;;;;;;;7.98;70.63;101784.52;107825;1288;22499;-78
2022/11/13 13:10:56;;;;;;;87.80;69.80;;;;;;;7.93;70.61;101781.23;107745;1288;21968;-78
2022/11/13 13:14:46;;;;;;;82.40;64.10;;;;;;;7.92;70.72;101776.73;108110;1287;22017;-80
2022/11/13 13:17:39;;;;;;;79.30;65.90;;;;;;;7.91;70.68;101770.51;107887;1288;23614;-79
2022/11/13 13:21:05;;;;;;;76.60;64.80;;;;;;;7.91;70.74;101773.96;108598;1280;23598;-85